createdAt,value
2017-07-21T00:01:06.094Z,21.10
2017-07-21T00:03:33.955Z,21.10
2017-07-21T00:06:01.527Z,21.10
2017-07-21T00:08:29.052Z,21.00
2017-07-21T00:10:56.588Z,21.00
2017-07-21T00:13:24.102Z,21.00
2017-07-21T00:15:51.921Z,21.00
2017-07-21T00:18:19.456Z,21.00
2017-07-21T00:20:46.968Z,20.90
2017-07-21T00:23:14.494Z,20.90
2017-07-21T00:25:42.018Z,20.90
2017-07-21T00:28:09.831Z,20.90
2017-07-21T00:30:37.341Z,20.90
2017-07-21T00:33:04.867Z,20.90
2017-07-21T00:35:32.389Z,20.90
2017-07-21T00:37:59.911Z,20.90
2017-07-21T00:40:27.695Z,20.90
2017-07-21T00:42:55.199Z,20.80
2017-07-21T00:45:22.707Z,20.80
2017-07-21T00:47:50.243Z,20.70
2017-07-21T00:50:17.755Z,20.70
2017-07-21T00:52:45.566Z,20.70
2017-07-21T00:55:13.082Z,20.70
2017-07-21T00:57:40.605Z,20.60
2017-07-21T01:00:08.403Z,20.60
2017-07-21T01:02:35.911Z,20.60
2017-07-21T01:05:03.426Z,20.60
2017-07-21T01:07:30.946Z,20.50
2017-07-21T01:09:58.496Z,20.60
2017-07-21T01:12:26.301Z,20.50
2017-07-21T01:14:53.818Z,20.50
2017-07-21T01:17:21.331Z,20.50
2017-07-21T01:19:48.872Z,20.50
2017-07-21T01:22:16.387Z,20.50
2017-07-21T01:24:43.899Z,20.50
2017-07-21T01:27:11.422Z,20.40
2017-07-21T01:29:39.238Z,20.40
2017-07-21T01:32:06.773Z,20.40
2017-07-21T01:34:34.295Z,20.40
2017-07-21T01:37:01.825Z,20.40
2017-07-21T01:39:29.327Z,20.30
2017-07-21T01:41:57.142Z,20.30
2017-07-21T01:44:24.659Z,20.30
2017-07-21T01:46:52.176Z,20.30
2017-07-21T01:49:19.713Z,20.30
2017-07-21T01:51:47.222Z,20.30
2017-07-21T01:54:14.759Z,20.30
2017-07-21T01:56:42.257Z,20.30
2017-07-21T01:59:10.065Z,20.30
2017-07-21T02:01:37.583Z,20.20
2017-07-21T02:04:05.087Z,20.20
2017-07-21T02:06:32.652Z,20.20
2017-07-21T02:09:00.188Z,20.20
2017-07-21T02:11:28.008Z,20.20
2017-07-21T02:13:55.532Z,20.20
2017-07-21T02:16:23.037Z,20.20
2017-07-21T02:18:50.562Z,20.20
2017-07-21T02:21:18.084Z,20.10
2017-07-21T02:23:45.602Z,20.10
2017-07-21T02:26:13.132Z,20.10
2017-07-21T02:28:40.927Z,20.10
2017-07-21T02:31:08.456Z,20.10
2017-07-21T02:33:35.986Z,20.10
2017-07-21T02:36:03.515Z,20.10
2017-07-21T02:38:31.039Z,20.00
2017-07-21T02:40:58.831Z,20.00
2017-07-21T02:43:26.354Z,20.00
2017-07-21T02:45:53.874Z,20.00
2017-07-21T02:48:21.402Z,20.00
2017-07-21T02:50:48.941Z,19.90
2017-07-21T02:53:16.470Z,19.90
2017-07-21T02:55:43.980Z,19.90
2017-07-21T02:58:11.816Z,19.90
2017-07-21T03:00:39.355Z,19.90
2017-07-21T03:03:06.881Z,19.90
2017-07-21T03:05:34.433Z,19.80
2017-07-21T03:08:01.952Z,19.80
2017-07-21T03:10:29.476Z,19.80
2017-07-21T03:12:56.993Z,19.80
2017-07-21T03:15:24.523Z,19.80
2017-07-21T03:17:52.040Z,19.80
2017-07-21T03:20:19.553Z,19.80
2017-07-21T03:22:58.766Z,19.80
2017-07-21T03:25:26.302Z,19.80
2017-07-21T03:27:53.823Z,19.80
2017-07-21T03:30:21.375Z,19.70
2017-07-21T03:32:48.898Z,19.70
2017-07-21T03:35:16.427Z,19.70
2017-07-21T03:37:43.930Z,19.60
2017-07-21T03:40:11.739Z,19.60
2017-07-21T03:42:39.247Z,19.60
2017-07-21T03:45:06.764Z,19.60
2017-07-21T03:47:34.367Z,19.60
2017-07-21T03:50:02.890Z,19.60
2017-07-21T03:52:30.699Z,19.50
2017-07-21T03:54:58.210Z,19.50
2017-07-21T03:57:25.735Z,19.50
2017-07-21T03:59:53.249Z,19.50
2017-07-21T04:02:20.780Z,19.50
2017-07-21T04:04:48.613Z,19.50
2017-07-21T04:07:16.150Z,19.50
2017-07-21T04:09:43.668Z,19.40
2017-07-21T04:12:11.221Z,19.40
2017-07-21T04:14:38.730Z,19.40
2017-07-21T04:17:06.526Z,19.40
2017-07-21T04:19:34.034Z,19.40
2017-07-21T04:22:01.548Z,19.40
2017-07-21T04:24:29.073Z,19.40
2017-07-21T04:26:56.595Z,19.40
2017-07-21T04:29:24.394Z,19.40
2017-07-21T04:31:51.935Z,19.40
2017-07-21T04:34:19.459Z,19.40
2017-07-21T04:36:47.009Z,19.40
2017-07-21T04:39:14.539Z,19.40
2017-07-21T04:41:42.319Z,19.40
2017-07-21T04:44:09.835Z,19.40
2017-07-21T04:46:37.336Z,19.40
2017-07-21T04:49:04.870Z,19.40
2017-07-21T04:51:32.383Z,19.40
2017-07-21T04:54:00.183Z,19.40
2017-07-21T04:56:27.708Z,19.40
2017-07-21T04:58:55.241Z,19.40
2017-07-21T05:01:22.773Z,19.40
2017-07-21T05:03:50.300Z,19.50
2017-07-21T05:06:18.132Z,19.50
2017-07-21T05:08:45.664Z,19.40
2017-07-21T05:11:13.191Z,19.50
2017-07-21T05:13:40.722Z,19.40
2017-07-21T05:16:08.266Z,19.40
2017-07-21T05:18:36.061Z,19.40
2017-07-21T05:21:03.562Z,19.40
2017-07-21T05:23:31.080Z,19.50
2017-07-21T05:25:58.615Z,19.50
2017-07-21T05:28:26.114Z,19.60
2017-07-21T05:30:53.899Z,19.60
2017-07-21T05:33:21.403Z,19.60
2017-07-21T05:35:48.920Z,19.60
2017-07-21T05:38:16.436Z,19.70
2017-07-21T05:40:43.951Z,19.70
2017-07-21T05:43:11.717Z,19.70
2017-07-21T05:45:39.226Z,19.70
2017-07-21T05:48:06.758Z,19.80
2017-07-21T05:50:34.379Z,19.80
2017-07-21T05:53:01.906Z,19.70
2017-07-21T05:55:29.687Z,19.70
2017-07-21T05:57:57.222Z,19.70
2017-07-21T06:00:24.768Z,19.80
2017-07-21T06:02:52.301Z,19.80
2017-07-21T06:05:19.833Z,19.80
2017-07-21T06:07:47.634Z,19.90
2017-07-21T06:10:15.131Z,20.00
2017-07-21T06:12:42.644Z,20.10
2017-07-21T06:15:11.000Z,20.10
2017-07-21T06:17:38.525Z,20.10
2017-07-21T06:20:06.328Z,20.10
2017-07-21T06:22:33.861Z,20.20
2017-07-21T06:25:01.407Z,20.30
2017-07-21T06:27:28.984Z,20.20
2017-07-21T06:29:56.497Z,20.20
2017-07-21T06:32:24.308Z,20.30
2017-07-21T06:34:51.823Z,20.40
2017-07-21T06:37:19.322Z,20.40
2017-07-21T06:39:46.849Z,20.40
2017-07-21T06:42:14.364Z,20.40
2017-07-21T06:44:42.178Z,20.50
2017-07-21T06:47:09.698Z,20.50
2017-07-21T06:49:37.216Z,20.60
2017-07-21T06:52:04.745Z,20.70
2017-07-21T06:54:32.266Z,20.70
2017-07-21T06:57:00.069Z,20.60
2017-07-21T06:59:27.595Z,20.50
2017-07-21T07:01:55.112Z,20.50
2017-07-21T07:04:22.652Z,20.60
2017-07-21T07:06:50.150Z,20.80
2017-07-21T07:09:17.671Z,20.80
2017-07-21T07:11:45.454Z,20.70
2017-07-21T07:14:12.981Z,20.90
2017-07-21T07:16:40.484Z,21.00
2017-07-21T07:19:08.271Z,21.10
2017-07-21T07:21:35.789Z,21.30
2017-07-21T07:24:03.324Z,21.40
2017-07-21T07:26:30.842Z,21.40
2017-07-21T07:28:58.369Z,21.40
2017-07-21T07:31:26.161Z,21.30
2017-07-21T07:33:53.684Z,21.30
2017-07-21T07:36:21.201Z,21.00
2017-07-21T07:38:48.727Z,21.10
2017-07-21T07:41:16.240Z,21.00
2017-07-21T07:43:44.057Z,21.20
2017-07-21T07:46:11.584Z,21.20
2017-07-21T07:48:39.102Z,21.20
2017-07-21T07:51:06.624Z,21.30
2017-07-21T07:53:34.126Z,21.50
2017-07-21T07:56:01.942Z,21.50
2017-07-21T07:58:29.471Z,21.30
2017-07-21T08:00:56.987Z,21.20
2017-07-21T08:03:24.525Z,21.20
2017-07-21T08:05:52.046Z,21.00
2017-07-21T08:08:19.832Z,21.00
2017-07-21T08:10:47.333Z,21.30
2017-07-21T08:13:14.833Z,21.40
2017-07-21T08:15:42.354Z,21.30
2017-07-21T08:18:09.863Z,21.50
2017-07-21T08:20:37.728Z,21.50
2017-07-21T08:23:05.325Z,21.20
2017-07-21T08:25:32.850Z,21.40
2017-07-21T08:28:00.374Z,21.60
2017-07-21T08:30:27.882Z,21.80
2017-07-21T08:32:55.693Z,21.70
2017-07-21T08:35:23.217Z,21.60
2017-07-21T08:37:50.769Z,21.70
2017-07-21T08:40:18.323Z,21.60
2017-07-21T08:42:45.833Z,21.30
2017-07-21T08:45:13.649Z,21.20
2017-07-21T08:47:41.159Z,21.20
2017-07-21T08:50:08.669Z,21.10
2017-07-21T08:52:36.272Z,21.20
2017-07-21T08:55:03.796Z,21.50
2017-07-21T08:57:31.605Z,21.70
2017-07-21T08:59:59.127Z,21.60
2017-07-21T09:02:26.647Z,21.60
2017-07-21T09:04:54.202Z,21.50
2017-07-21T09:07:21.732Z,21.50
2017-07-21T09:09:49.546Z,21.20
2017-07-21T09:12:17.055Z,21.50
2017-07-21T09:14:44.570Z,21.40
2017-07-21T09:17:12.099Z,21.60
2017-07-21T09:19:39.612Z,21.60
2017-07-21T09:22:07.403Z,21.60
2017-07-21T09:24:34.928Z,21.50
2017-07-21T09:27:02.442Z,21.40
2017-07-21T09:29:29.971Z,21.70
2017-07-21T09:31:57.492Z,21.70
2017-07-21T09:34:25.312Z,21.70
2017-07-21T09:36:52.858Z,21.70
2017-07-21T09:39:20.371Z,21.70
2017-07-21T09:41:47.879Z,22.00
2017-07-21T09:44:15.391Z,22.20
2017-07-21T09:46:43.171Z,22.50
2017-07-21T09:49:10.710Z,22.40
2017-07-21T09:51:38.248Z,22.50
2017-07-21T09:54:05.764Z,22.70
2017-07-21T09:56:33.290Z,22.50
2017-07-21T09:59:01.120Z,21.90
2017-07-21T10:01:28.645Z,22.00
2017-07-21T10:03:56.411Z,22.10
2017-07-21T10:06:23.950Z,22.40
2017-07-21T10:08:51.466Z,22.50
2017-07-21T10:11:19.312Z,22.50
2017-07-21T10:13:46.821Z,22.50
2017-07-21T10:16:14.337Z,22.40
2017-07-21T10:18:41.883Z,22.30
2017-07-21T10:21:09.400Z,22.40
2017-07-21T10:23:37.208Z,22.50
2017-07-21T10:26:04.749Z,22.50
2017-07-21T10:28:32.287Z,22.50
2017-07-21T10:30:59.823Z,22.40
2017-07-21T10:33:27.365Z,22.30
2017-07-21T10:35:55.171Z,22.40
2017-07-21T10:38:23.242Z,22.50
2017-07-21T10:40:50.752Z,22.60
2017-07-21T10:43:18.278Z,22.50
2017-07-21T10:45:45.833Z,22.80
2017-07-21T10:48:13.622Z,23.10
2017-07-21T10:50:41.159Z,22.70
2017-07-21T10:53:08.740Z,22.60
2017-07-21T10:55:36.267Z,22.70
2017-07-21T10:58:03.794Z,23.00
2017-07-21T11:00:31.581Z,23.10
2017-07-21T11:02:59.091Z,23.30
2017-07-21T11:05:26.602Z,23.20
2017-07-21T11:07:54.134Z,23.30
2017-07-21T11:10:21.646Z,23.30
2017-07-21T11:12:49.434Z,23.40
2017-07-21T11:15:16.981Z,23.60
2017-07-21T11:17:44.497Z,23.70
2017-07-21T11:20:12.005Z,24.00
2017-07-21T11:22:39.508Z,23.50
2017-07-21T11:25:07.329Z,23.30
2017-07-21T11:27:34.857Z,23.60
2017-07-21T11:30:02.377Z,23.80
2017-07-21T11:32:29.886Z,24.00
2017-07-21T11:34:57.692Z,24.10
2017-07-21T11:37:25.202Z,24.30
2017-07-21T11:39:52.724Z,24.50
2017-07-21T11:42:20.517Z,24.60
2017-07-21T11:44:48.044Z,24.40
2017-07-21T11:47:15.565Z,24.70
2017-07-21T11:49:43.400Z,24.80
2017-07-21T11:52:10.897Z,24.90
2017-07-21T11:54:38.409Z,25.10
2017-07-21T11:57:06.210Z,24.80
2017-07-21T11:59:33.741Z,24.90
2017-07-21T12:02:01.237Z,24.90
2017-07-21T12:04:29.041Z,25.10
2017-07-21T12:06:56.559Z,25.50
2017-07-21T12:09:24.075Z,25.90
2017-07-21T12:11:51.892Z,26.20
2017-07-21T12:14:19.406Z,25.70
2017-07-21T12:16:46.930Z,25.20
2017-07-21T12:21:51.462Z,25.00
2017-07-21T12:24:19.263Z,25.10
2017-07-21T12:26:46.789Z,25.40
2017-07-21T12:29:14.350Z,25.80
2017-07-21T12:31:42.198Z,26.20
2017-07-21T12:34:09.716Z,26.50
2017-07-21T12:36:37.233Z,26.70
2017-07-21T12:39:05.015Z,26.80
2017-07-21T12:41:32.527Z,26.70
2017-07-21T12:44:00.086Z,27.00
2017-07-21T12:46:27.905Z,27.00
2017-07-21T12:48:55.415Z,27.30
2017-07-21T12:51:22.914Z,27.00
2017-07-21T12:53:50.435Z,26.80
2017-07-21T12:56:17.941Z,26.80
2017-07-21T12:58:45.739Z,26.90
2017-07-21T13:01:13.257Z,26.90
2017-07-21T13:03:40.757Z,27.10
2017-07-21T13:06:08.277Z,27.50
2017-07-21T13:08:35.812Z,28.00
2017-07-21T13:11:03.606Z,28.50
2017-07-21T13:13:31.128Z,28.70
2017-07-21T13:15:58.636Z,28.30
2017-07-21T13:18:26.155Z,28.60
2017-07-21T13:20:53.670Z,28.80
2017-07-21T13:23:21.200Z,29.20
2017-07-21T13:25:48.701Z,29.70
2017-07-21T13:28:16.496Z,28.50
2017-07-21T13:30:44.021Z,29.00
2017-07-21T13:33:11.546Z,29.50
2017-07-21T13:35:39.076Z,28.90
2017-07-21T13:38:06.589Z,29.10
2017-07-21T13:40:34.384Z,29.50
2017-07-21T13:43:01.899Z,30.00
2017-07-21T13:45:29.423Z,30.80
2017-07-21T13:47:56.942Z,30.00
2017-07-21T13:50:24.508Z,28.90
2017-07-21T13:52:52.294Z,28.30
2017-07-21T13:55:19.797Z,28.70
2017-07-21T13:57:47.297Z,28.70
2017-07-21T14:00:14.841Z,28.40
2017-07-21T14:02:42.374Z,29.10
2017-07-21T14:05:10.170Z,30.30
2017-07-21T14:07:37.708Z,31.10
2017-07-21T14:10:05.955Z,29.90
2017-07-21T14:12:33.506Z,29.00
2017-07-21T14:15:01.032Z,29.50
2017-07-21T14:17:28.828Z,29.80
2017-07-21T14:19:56.343Z,29.40
2017-07-21T14:22:23.861Z,29.30
2017-07-21T14:24:51.392Z,29.00
2017-07-21T14:27:18.899Z,28.60
2017-07-21T14:29:46.678Z,28.50
2017-07-21T14:32:14.214Z,28.50
2017-07-21T14:34:41.717Z,29.00
2017-07-21T14:37:09.256Z,29.40
2017-07-21T14:39:36.770Z,29.60
2017-07-21T14:42:04.584Z,29.40
2017-07-21T14:44:32.104Z,29.30
2017-07-21T14:46:59.620Z,29.00
2017-07-21T14:49:27.129Z,29.10
2017-07-21T14:51:54.629Z,29.10
2017-07-21T14:54:22.425Z,29.50
2017-07-21T14:56:49.932Z,29.90
2017-07-21T14:59:17.450Z,29.70
2017-07-21T15:01:44.976Z,29.90
2017-07-21T15:04:12.483Z,30.10
2017-07-21T15:06:40.270Z,30.70
2017-07-21T15:09:07.804Z,30.80
2017-07-21T15:11:35.328Z,30.40
2017-07-21T15:14:02.850Z,30.50
2017-07-21T15:16:30.483Z,30.60
2017-07-21T15:18:58.266Z,30.60
2017-07-21T15:21:25.774Z,30.70
2017-07-21T15:23:53.290Z,30.70
2017-07-21T15:26:20.851Z,31.00
2017-07-21T15:28:48.372Z,30.90
2017-07-21T15:31:16.182Z,30.80
2017-07-21T15:33:43.699Z,30.90
2017-07-21T15:36:11.299Z,31.10
2017-07-21T15:38:38.804Z,30.90
2017-07-21T15:41:06.315Z,30.40
2017-07-21T15:43:33.874Z,29.80
2017-07-21T15:46:01.392Z,29.70
2017-07-21T15:48:29.199Z,29.90
2017-07-21T15:50:56.744Z,30.00
2017-07-21T15:53:24.264Z,30.00
2017-07-21T15:55:51.781Z,30.90
2017-07-21T15:58:19.303Z,31.80
2017-07-21T16:00:47.099Z,32.50
2017-07-21T16:03:14.594Z,33.40
2017-07-21T16:05:42.129Z,33.80
2017-07-21T16:08:09.665Z,34.20
2017-07-21T16:10:37.210Z,34.10
2017-07-21T16:13:05.013Z,34.80
2017-07-21T16:15:32.526Z,34.80
2017-07-21T16:18:00.052Z,34.60
2017-07-21T16:20:27.565Z,33.70
2017-07-21T16:22:55.079Z,33.40
2017-07-21T16:25:22.887Z,33.20
2017-07-21T16:27:50.399Z,33.20
2017-07-21T16:30:17.913Z,32.50
2017-07-21T16:32:45.443Z,32.30
2017-07-21T16:35:12.949Z,31.70
2017-07-21T16:37:40.744Z,31.60
2017-07-21T16:40:08.259Z,31.60
2017-07-21T16:42:35.765Z,31.40
2017-07-21T16:45:03.287Z,31.70
2017-07-21T16:47:30.802Z,32.20
2017-07-21T16:49:58.581Z,32.60
2017-07-21T16:52:26.883Z,32.80
2017-07-21T16:54:54.411Z,32.80
2017-07-21T16:57:21.934Z,32.50
2017-07-21T16:59:49.442Z,32.10
2017-07-21T17:02:17.246Z,31.90
2017-07-21T17:04:44.762Z,31.40
2017-07-21T17:07:12.318Z,31.10
2017-07-21T17:09:39.843Z,30.60
2017-07-21T17:12:07.352Z,30.40
2017-07-21T17:14:35.131Z,31.20
2017-07-21T17:17:02.651Z,33.10
2017-07-21T17:19:30.146Z,35.00
2017-07-21T17:21:57.661Z,34.70
2017-07-21T17:24:25.198Z,33.80
2017-07-21T17:26:52.750Z,32.70
2017-07-21T17:29:20.321Z,32.10
2017-07-21T17:31:47.851Z,32.70
2017-07-21T17:34:15.414Z,34.10
2017-07-21T17:36:43.307Z,34.90
2017-07-21T17:39:10.870Z,34.50
2017-07-21T17:41:38.429Z,33.40
2017-07-21T17:44:06.349Z,32.70
2017-07-21T17:46:33.853Z,32.10
2017-07-21T17:49:01.382Z,31.60
2017-07-21T17:51:29.166Z,31.00
2017-07-21T17:53:56.859Z,30.50
2017-07-21T17:56:24.376Z,30.10
2017-07-21T17:58:51.904Z,29.70
2017-07-21T18:01:19.435Z,29.50
2017-07-21T18:03:47.229Z,30.50
2017-07-21T18:06:14.748Z,31.80
2017-07-21T18:08:42.260Z,33.00
2017-07-21T18:11:09.790Z,34.00
2017-07-21T18:13:37.295Z,34.00
2017-07-21T18:16:05.132Z,33.80
2017-07-21T18:18:32.658Z,33.70
2017-07-21T18:21:00.205Z,33.40
2017-07-21T18:23:27.725Z,33.10
2017-07-21T18:25:55.236Z,32.40
2017-07-21T18:28:23.021Z,31.90
2017-07-21T18:30:50.534Z,31.10
2017-07-21T18:33:18.045Z,30.40
2017-07-21T18:35:45.578Z,30.10
2017-07-21T18:38:13.107Z,29.80
2017-07-21T18:40:40.915Z,29.60
2017-07-21T18:43:08.424Z,29.30
2017-07-21T18:45:35.924Z,29.00
2017-07-21T18:48:03.447Z,28.60
2017-07-21T18:50:30.958Z,28.40
2017-07-21T18:52:58.748Z,28.20
2017-07-21T18:55:26.258Z,28.10
2017-07-21T18:57:53.788Z,27.80
2017-07-21T19:00:21.321Z,27.70
2017-07-21T19:02:48.849Z,27.50
2017-07-21T19:05:16.657Z,27.30
2017-07-21T19:07:45.079Z,27.00
2017-07-21T19:10:12.615Z,26.80
2017-07-21T19:12:40.137Z,26.60
2017-07-21T19:15:07.631Z,26.50
2017-07-21T19:17:35.454Z,26.40
2017-07-21T19:20:02.981Z,26.30
2017-07-21T19:22:30.512Z,26.20
2017-07-21T19:24:58.025Z,26.00
2017-07-21T19:27:25.544Z,25.90
2017-07-21T19:29:53.367Z,25.90
2017-07-21T19:32:20.891Z,25.90
2017-07-21T19:34:48.392Z,25.90
2017-07-21T19:37:15.905Z,25.80
2017-07-21T19:39:43.438Z,25.70
2017-07-21T19:42:11.235Z,25.60
2017-07-21T19:44:38.747Z,25.50
2017-07-21T19:47:06.266Z,25.40
2017-07-21T19:49:33.793Z,25.30
2017-07-21T19:52:01.300Z,25.30
2017-07-21T19:54:29.089Z,25.10
2017-07-21T19:56:56.606Z,25.00
2017-07-21T19:59:24.120Z,24.80
2017-07-21T20:01:51.652Z,24.70
2017-07-21T20:04:19.208Z,24.50
2017-07-21T20:06:47.017Z,24.30
2017-07-21T20:09:14.526Z,24.20
2017-07-21T20:11:42.056Z,24.20
2017-07-21T20:14:09.585Z,24.20
2017-07-21T20:16:37.111Z,24.10
2017-07-21T20:19:04.916Z,23.90
2017-07-21T20:21:32.426Z,23.70
2017-07-21T20:23:59.959Z,23.70
2017-07-21T20:26:27.520Z,23.70
2017-07-21T20:28:55.060Z,23.70
2017-07-21T20:31:22.836Z,23.50
2017-07-21T20:33:50.443Z,23.30
2017-07-21T20:36:17.989Z,23.30
2017-07-21T20:38:45.533Z,23.20
2017-07-21T20:41:13.061Z,23.10
2017-07-21T20:43:40.886Z,23.10
2017-07-21T20:46:08.406Z,23.00
2017-07-21T20:48:35.926Z,22.80
2017-07-21T20:51:03.439Z,22.80
2017-07-21T20:53:30.942Z,22.80
2017-07-21T20:55:58.753Z,22.80
2017-07-21T20:58:26.275Z,22.80
2017-07-21T21:00:53.816Z,22.80
2017-07-21T21:03:21.445Z,22.80
2017-07-21T21:05:48.974Z,22.60
2017-07-21T21:08:16.790Z,22.50
2017-07-21T21:10:45.214Z,22.40
2017-07-21T21:13:12.732Z,22.30
2017-07-21T21:15:40.264Z,22.30
2017-07-21T21:18:08.130Z,22.30
2017-07-21T21:20:35.930Z,22.10
2017-07-21T21:23:03.452Z,22.10
2017-07-21T21:25:30.959Z,22.10
2017-07-21T21:27:58.843Z,22.10
2017-07-21T21:30:26.350Z,22.10
2017-07-21T21:32:54.146Z,22.10
2017-07-21T21:35:21.666Z,22.00
2017-07-21T21:38:03.097Z,22.00
2017-07-21T21:40:31.213Z,22.00
2017-07-21T21:42:58.997Z,21.90
2017-07-21T21:45:26.506Z,21.90
2017-07-21T21:47:54.019Z,21.80
2017-07-21T21:50:24.329Z,21.80
2017-07-21T21:52:52.062Z,21.80
2017-07-21T21:55:26.590Z,21.70
2017-07-21T21:57:55.197Z,21.60
2017-07-21T22:00:22.786Z,21.60
2017-07-21T22:02:50.420Z,21.50
2017-07-21T22:05:18.049Z,21.50
2017-07-21T22:07:48.689Z,21.40
2017-07-21T22:10:16.227Z,21.40
2017-07-21T22:12:44.825Z,21.50
2017-07-21T22:15:38.365Z,21.40
2017-07-21T22:18:06.563Z,21.30
2017-07-21T22:20:34.663Z,21.20
2017-07-21T22:23:02.292Z,21.10
2017-07-21T22:25:30.813Z,21.10
2017-07-21T22:27:58.330Z,21.10
2017-07-21T22:30:25.940Z,21.10
2017-07-21T22:32:53.771Z,21.00
2017-07-21T22:35:21.303Z,21.00
2017-07-21T22:37:48.840Z,21.00
2017-07-21T22:40:16.361Z,20.90
2017-07-21T22:42:44.023Z,20.90
2017-07-21T22:45:11.919Z,20.90
2017-07-21T22:47:39.539Z,20.90
2017-07-21T22:50:07.067Z,20.90
2017-07-21T23:12:45.515Z,20.50
2017-07-21T23:15:13.047Z,20.50
2017-07-21T23:17:43.135Z,20.40
2017-07-21T23:20:10.697Z,20.40
2017-07-21T23:22:43.064Z,20.40
2017-07-21T23:25:10.578Z,20.30
2017-07-21T23:27:38.086Z,20.20
2017-07-21T23:30:07.066Z,20.20
2017-07-21T23:32:34.594Z,20.20
2017-07-21T23:35:02.386Z,20.10
2017-07-21T23:37:30.189Z,20.10
2017-07-21T23:39:57.722Z,20.00
2017-07-21T23:42:25.251Z,19.90
2017-07-21T23:44:52.772Z,20.00
2017-07-21T23:47:20.540Z,20.00
2017-07-21T23:49:48.073Z,20.00
2017-07-21T23:52:15.619Z,19.90
2017-07-21T23:54:43.139Z,19.90
2017-07-21T23:57:10.687Z,19.80
2017-07-21T23:59:38.487Z,19.70
